Time;durP1;ratioP1;P1;durP2;ratioP2;P2;SDS_P1;SDS_P2;PMS_P1;PMS_P2;Temp;Humidity;BMP_temperature;BMP_pressure;BME280_temperature;BME280_humidity;BME280_pressure;Samples;Min_cycle;Max_cycle;Signal;HPM_P1;HPM_P2
2022/04/05 00:00:55;;;;;;;;;;;8.10;92.70;;;;;;5025750;28;19921;-78
2022/04/05 00:03:20;;;;;;;;;;;8.10;92.80;;;;;;5044769;28;19913;-78
2022/04/05 00:05:45;;;;;;;;;;;8.10;92.80;;;;;;5031407;28;19937;-78
2022/04/05 00:08:11;;;;;;;;;;;8.10;92.80;;;;;;5032192;28;19913;-78
2022/04/05 00:10:36;;;;;;;;;;;8.10;92.80;;;;;;5029751;28;19952;-78
2022/04/05 00:13:05;;;;;;;;;;;8.10;93.00;;;;;;5031773;28;19956;-78
2022/04/05 00:15:32;;;;;;;;;;;8.20;92.90;;;;;;5032540;28;19917;-77
2022/04/05 00:17:57;;;;;;;;;;;8.20;92.90;;;;;;5030789;28;19923;-77
2022/04/05 00:20:22;;;;;;;;;;;8.10;92.90;;;;;;5028399;28;19921;-78
2022/04/05 00:22:48;;;;;;;;;;;8.20;93.00;;;;;;5029584;28;19913;-78
2022/04/05 00:25:13;;;;;;;;;;;8.10;92.90;;;;;;5030031;28;19917;-76
2022/04/05 00:27:39;;;;;;;;;;;8.20;93.10;;;;;;5033805;28;19909;-77
2022/04/05 00:30:04;;;;;;;;;;;8.30;93.00;;;;;;5030957;28;19917;-77
2022/04/05 00:32:30;;;;;;;;;;;8.40;93.00;;;;;;5037775;28;19963;-77
2022/04/05 00:34:55;;;;;;;;;;;8.30;93.00;;;;;;5031470;28;19913;-78
2022/04/05 00:37:21;;;;;;;;;;;8.40;93.00;;;;;;5030085;28;19913;-77
2022/04/05 00:39:48;;;;;;;;;;;8.40;92.90;;;;;;5030010;28;20020;-77
2022/04/05 00:42:13;;;;;;;;;;;8.40;93.00;;;;;;5029604;28;19992;-78
2022/04/05 00:44:39;;;;;;;;;;;8.40;93.10;;;;;;5034925;28;19971;-76
2022/04/05 00:47:13;;;;;;;;;;;8.50;93.10;;;;;;5034114;28;19971;-78
2022/04/05 00:49:39;;;;;;;;;;;8.50;93.10;;;;;;5032144;28;19996;-78
2022/04/05 00:52:05;;;;;;;;;;;8.50;93.00;;;;;;5029572;28;20415;-78
2022/04/05 00:54:33;;;;;;;;;;;8.50;93.00;;;;;;5031742;28;20028;-77
2022/04/05 00:56:59;;;;;;;;;;;8.50;93.00;;;;;;5028346;28;19919;-76
2022/04/05 00:59:28;;;;;;;;;;;8.50;93.00;;;;;;5030753;28;19913;-77
2022/04/05 01:01:54;;;;;;;;;;;8.50;93.20;;;;;;5029782;28;19932;-78
2022/04/05 01:04:20;;;;;;;;;;;8.50;93.10;;;;;;5029139;28;19913;-76
2022/04/05 01:06:47;;;;;;;;;;;8.60;93.10;;;;;;5030167;28;19913;-77
2022/04/05 01:09:13;;;;;;;;;;;8.60;93.10;;;;;;5027350;28;20035;-77
2022/04/05 01:11:39;;;;;;;;;;;8.60;93.00;;;;;;5030253;28;20032;-77
2022/04/05 01:14:05;;;;;;;;;;;8.60;93.10;;;;;;5032528;28;19971;-77
2022/04/05 01:16:31;;;;;;;;;;;8.60;93.00;;;;;;5030449;28;20011;-77
2022/04/05 01:18:56;;;;;;;;;;;8.70;93.00;;;;;;5028839;28;20015;-77
2022/04/05 01:21:22;;;;;;;;;;;8.70;92.90;;;;;;5022995;28;19913;-77
2022/04/05 01:24:07;;;;;;;;;;;8.70;93.00;;;;;;5030878;28;19921;-76
2022/04/05 01:26:43;;;;;;;;;;;8.70;93.10;;;;;;5029420;28;19982;-77
2022/04/05 01:29:09;;;;;;;;;;;8.70;93.10;;;;;;5026344;28;20406;-77
2022/04/05 01:31:44;;;;;;;;;;;8.80;93.10;;;;;;5029044;28;20008;-77
2022/04/05 01:34:10;;;;;;;;;;;8.80;93.10;;;;;;5029124;28;20276;-77
2022/04/05 01:36:55;;;;;;;;;;;8.80;93.10;;;;;;5026124;28;19913;-77
2022/04/05 01:39:21;;;;;;;;;;;8.90;93.10;;;;;;5028446;28;19928;-77
2022/04/05 01:41:50;;;;;;;;;;;9.00;93.10;;;;;;5027037;28;19963;-76
2022/04/05 01:44:16;;;;;;;;;;;8.80;92.80;;;;;;5030175;28;19992;-77
2022/04/05 01:46:41;;;;;;;;;;;8.80;92.70;;;;;;5027878;28;19959;-77
2022/04/05 01:49:08;;;;;;;;;;;8.60;92.40;;;;;;5027281;28;19921;-76
2022/04/05 01:51:37;;;;;;;;;;;8.60;92.40;;;;;;5027626;28;19917;-78
2022/04/05 01:54:09;;;;;;;;;;;8.50;92.10;;;;;;5028739;28;20409;-77
2022/04/05 01:56:42;;;;;;;;;;;8.50;91.70;;;;;;5028487;28;19987;-77
2022/04/05 01:59:07;;;;;;;;;;;8.40;91.80;;;;;;5028240;28;20315;-77
2022/04/05 02:01:33;;;;;;;;;;;8.40;91.70;;;;;;5025051;28;20012;-77
2022/04/05 02:03:58;;;;;;;;;;;8.30;92.00;;;;;;5028989;28;20325;-77
2022/04/05 02:06:24;;;;;;;;;;;8.20;92.20;;;;;;5030260;28;19917;-77
2022/04/05 02:08:50;;;;;;;;;;;8.20;91.90;;;;;;5027326;28;20337;-77
2022/04/05 02:11:16;;;;;;;;;;;8.20;92.20;;;;;;5028449;28;19968;-76
2022/04/05 02:13:41;;;;;;;;;;;8.10;92.00;;;;;;5026822;28;19913;-77
2022/04/05 02:16:07;;;;;;;;;;;8.20;92.20;;;;;;5033965;28;19970;-77
2022/04/05 02:18:34;;;;;;;;;;;8.10;92.30;;;;;;5032739;28;19920;-75
2022/04/05 02:21:00;;;;;;;;;;;8.10;92.50;;;;;;5033383;28;19913;-76
2022/04/05 02:23:25;;;;;;;;;;;8.10;92.60;;;;;;5017926;28;20261;-76
2022/04/05 02:25:51;;;;;;;;;;;8.10;92.60;;;;;;5029994;28;20360;-77
2022/04/05 02:28:16;;;;;;;;;;;8.10;92.60;;;;;;5026586;28;19913;-76
2022/04/05 02:30:42;;;;;;;;;;;8.10;92.40;;;;;;5028610;28;19917;-76
2022/04/05 02:33:07;;;;;;;;;;;8.00;92.50;;;;;;5028281;28;19923;-76
2022/04/05 02:35:33;;;;;;;;;;;8.00;92.40;;;;;;5027652;28;19944;-76
2022/04/05 02:37:59;;;;;;;;;;;8.00;92.40;;;;;;5024160;28;20032;-77
2022/04/05 02:40:25;;;;;;;;;;;8.10;92.40;;;;;;5026869;28;19913;-77
2022/04/05 02:42:51;;;;;;;;;;;8.10;92.00;;;;;;5028549;28;19913;-75
2022/04/05 02:45:16;;;;;;;;;;;8.00;91.70;;;;;;5029164;28;19921;-77
2022/04/05 02:47:42;;;;;;;;;;;8.10;91.90;;;;;;5026982;28;19913;-77
2022/04/05 02:50:07;;;;;;;;;;;8.00;92.00;;;;;;5019662;28;19917;-76
2022/04/05 02:52:33;;;;;;;;;;;8.00;92.20;;;;;;5029125;28;19913;-77
2022/04/05 02:54:58;;;;;;;;;;;8.10;92.40;;;;;;5026874;28;19932;-77
2022/04/05 02:57:24;;;;;;;;;;;8.10;92.60;;;;;;5027408;28;20258;-77
2022/04/05 02:59:49;;;;;;;;;;;8.00;92.50;;;;;;5026825;28;19967;-77
2022/04/05 03:02:14;;;;;;;;;;;8.00;92.50;;;;;;5029111;28;19993;-77
2022/04/05 03:04:40;;;;;;;;;;;8.10;92.50;;;;;;5028265;28;19974;-77
2022/04/05 03:07:05;;;;;;;;;;;8.00;92.40;;;;;;5031908;28;19913;-77
2022/04/05 03:09:31;;;;;;;;;;;8.00;92.40;;;;;;5027266;28;19917;-77
2022/04/05 03:11:56;;;;;;;;;;;8.00;92.50;;;;;;5030494;28;20083;-77
2022/04/05 03:14:22;;;;;;;;;;;8.00;92.60;;;;;;5032549;28;20035;-77
2022/04/05 03:16:47;;;;;;;;;;;8.00;92.70;;;;;;5032594;28;19921;-77
2022/04/05 03:19:13;;;;;;;;;;;8.00;92.60;;;;;;5028588;28;19917;-77
2022/04/05 03:21:38;;;;;;;;;;;8.10;92.80;;;;;;5028990;28;19913;-80
2022/04/05 03:24:04;;;;;;;;;;;8.10;92.60;;;;;;5029701;28;19913;-76
2022/04/05 03:26:29;;;;;;;;;;;8.10;92.60;;;;;;5030012;28;20020;-76
2022/04/05 03:28:55;;;;;;;;;;;8.00;92.60;;;;;;5030349;28;19939;-77
2022/04/05 03:31:20;;;;;;;;;;;8.10;92.70;;;;;;5034270;28;19967;-76
2022/04/05 03:33:46;;;;;;;;;;;8.10;92.50;;;;;;5031116;28;19960;-77
2022/04/05 03:36:11;;;;;;;;;;;8.00;92.50;;;;;;5032116;28;20383;-77
2022/04/05 03:38:37;;;;;;;;;;;8.10;92.60;;;;;;5029064;28;19923;-77
2022/04/05 03:41:02;;;;;;;;;;;8.00;92.50;;;;;;5032178;28;20099;-77
2022/04/05 03:43:28;;;;;;;;;;;8.10;92.60;;;;;;5030749;28;19967;-77
2022/04/05 03:45:53;;;;;;;;;;;8.00;92.50;;;;;;5029382;28;19913;-77
2022/04/05 03:48:19;;;;;;;;;;;8.10;92.60;;;;;;5046304;28;19971;-77
2022/04/05 03:50:44;;;;;;;;;;;8.10;92.50;;;;;;5031576;28;19924;-77
2022/04/05 03:53:10;;;;;;;;;;;8.00;92.50;;;;;;5030970;28;20003;-77
2022/04/05 03:55:36;;;;;;;;;;;8.10;92.50;;;;;;5029509;28;20008;-77
2022/04/05 03:58:01;;;;;;;;;;;8.10;92.40;;;;;;5031514;28;19920;-77
2022/04/05 04:00:27;;;;;;;;;;;8.10;92.40;;;;;;5027472;28;19921;-77
2022/04/05 04:02:52;;;;;;;;;;;8.10;92.40;;;;;;5029773;28;19913;-77
2022/04/05 04:05:20;;;;;;;;;;;8.10;92.50;;;;;;5029463;28;19913;-77
2022/04/05 04:07:47;;;;;;;;;;;8.10;92.40;;;;;;5029579;28;19913;-77
2022/04/05 04:10:14;;;;;;;;;;;8.10;92.30;;;;;;5030322;28;20293;-77
2022/04/05 04:12:40;;;;;;;;;;;8.10;92.30;;;;;;5031620;28;19968;-78
2022/04/05 04:15:06;;;;;;;;;;;8.10;92.30;;;;;;5029239;28;19928;-77
2022/04/05 04:17:31;;;;;;;;;;;8.10;92.30;;;;;;5029607;28;19929;-78
2022/04/05 04:19:57;;;;;;;;;;;8.10;92.30;;;;;;5023804;28;19983;-79
2022/04/05 04:22:22;;;;;;;;;;;8.10;92.30;;;;;;5032483;28;19917;-78
2022/04/05 04:24:48;;;;;;;;;;;8.10;92.50;;;;;;5031270;28;19914;-77
2022/04/05 04:27:14;;;;;;;;;;;8.10;92.30;;;;;;5031709;28;20435;-79
2022/04/05 04:29:39;;;;;;;;;;;8.10;92.40;;;;;;5030165;28;20324;-77
2022/04/05 04:32:05;;;;;;;;;;;8.20;92.40;;;;;;5031246;28;19921;-77
2022/04/05 04:34:30;;;;;;;;;;;8.10;92.20;;;;;;5030897;28;20387;-79
2022/04/05 04:36:56;;;;;;;;;;;8.10;92.20;;;;;;5026285;28;19913;-78
2022/04/05 04:39:22;;;;;;;;;;;8.10;92.30;;;;;;5029414;28;19924;-79
2022/04/05 04:41:47;;;;;;;;;;;8.10;92.40;;;;;;5030891;28;19947;-78
2022/04/05 04:44:13;;;;;;;;;;;8.20;92.30;;;;;;5025376;28;20012;-76
2022/04/05 04:46:39;;;;;;;;;;;8.10;92.20;;;;;;5032890;28;20091;-77
2022/04/05 04:49:04;;;;;;;;;;;8.20;92.40;;;;;;5031891;28;20012;-77
2022/04/05 04:51:30;;;;;;;;;;;8.10;92.30;;;;;;5031701;28;19924;-75
2022/04/05 04:53:55;;;;;;;;;;;8.20;92.40;;;;;;5032373;28;19921;-76
2022/04/05 04:56:20;;;;;;;;;;;8.20;92.20;;;;;;5030913;28;19948;-77
2022/04/05 04:58:46;;;;;;;;;;;8.20;92.30;;;;;;5028792;28;19958;-76
2022/04/05 05:01:11;;;;;;;;;;;8.20;92.40;;;;;;5029910;28;19971;-76
2022/04/05 05:03:37;;;;;;;;;;;8.20;92.30;;;;;;5027992;28;19921;-76
2022/04/05 05:06:04;;;;;;;;;;;8.20;92.30;;;;;;5028788;28;19913;-77
2022/04/05 05:08:30;;;;;;;;;;;8.20;92.30;;;;;;5029414;28;19971;-78
2022/04/05 05:10:56;;;;;;;;;;;8.20;92.20;;;;;;5029599;28;19952;-78
2022/04/05 05:13:21;;;;;;;;;;;8.20;92.30;;;;;;5034180;28;19913;-79
2022/04/05 05:15:46;;;;;;;;;;;8.20;92.10;;;;;;5028446;28;20292;-79
2022/04/05 05:18:12;;;;;;;;;;;8.30;92.30;;;;;;5031762;28;20340;-79
2022/04/05 05:20:38;;;;;;;;;;;8.30;91.80;;;;;;5027531;28;19955;-78
2022/04/05 05:23:03;;;;;;;;;;;8.30;91.90;;;;;;5033248;28;19913;-79
2022/04/05 05:25:29;;;;;;;;;;;8.30;91.60;;;;;;5029424;28;19913;-79
2022/04/05 05:27:55;;;;;;;;;;;8.30;91.80;;;;;;5031335;28;20002;-79
2022/04/05 05:30:22;;;;;;;;;;;8.30;91.80;;;;;;5029060;28;19917;-78
2022/04/05 05:32:51;;;;;;;;;;;8.40;91.60;;;;;;5030302;28;19962;-79
2022/04/05 05:35:17;;;;;;;;;;;8.40;91.70;;;;;;5029934;28;20420;-79
2022/04/05 05:37:43;;;;;;;;;;;8.40;91.70;;;;;;5032939;28;19916;-80
2022/04/05 05:40:09;;;;;;;;;;;8.40;91.30;;;;;;5030026;28;19917;-80
2022/04/05 05:42:45;;;;;;;;;;;8.40;91.30;;;;;;5033358;28;19924;-79
2022/04/05 05:45:11;;;;;;;;;;;8.30;91.50;;;;;;5032563;28;19917;-79
2022/04/05 05:47:36;;;;;;;;;;;8.40;91.70;;;;;;5032782;28;20451;-79
2022/04/05 05:50:02;;;;;;;;;;;8.40;91.70;;;;;;5032556;28;19913;-78
2022/04/05 05:52:27;;;;;;;;;;;8.40;91.60;;;;;;5028650;28;19972;-78
2022/04/05 05:54:53;;;;;;;;;;;8.40;91.80;;;;;;5028757;28;20300;-78
2022/04/05 05:57:18;;;;;;;;;;;8.50;91.70;;;;;;5046343;28;20288;-78
2022/04/05 05:59:43;;;;;;;;;;;8.40;91.70;;;;;;5030221;28;19935;-78
2022/04/05 06:02:09;;;;;;;;;;;8.50;91.70;;;;;;5026702;28;20506;-77
2022/04/05 06:04:34;;;;;;;;;;;8.50;91.70;;;;;;5028244;28;19917;-78
2022/04/05 06:07:00;;;;;;;;;;;8.50;91.70;;;;;;5030508;28;20047;-78
2022/04/05 06:09:25;;;;;;;;;;;8.50;91.80;;;;;;5027695;28;19980;-78
2022/04/05 06:11:51;;;;;;;;;;;8.50;91.70;;;;;;5023913;28;19959;-78
2022/04/05 06:14:16;;;;;;;;;;;8.50;91.80;;;;;;5029720;28;19923;-77
2022/04/05 06:16:41;;;;;;;;;;;8.50;91.70;;;;;;5037132;28;19956;-78
2022/04/05 06:19:07;;;;;;;;;;;8.60;91.60;;;;;;5033829;28;19924;-78
2022/04/05 06:21:32;;;;;;;;;;;8.50;91.50;;;;;;5031458;28;19917;-78
2022/04/05 06:23:58;;;;;;;;;;;8.50;91.80;;;;;;5028437;28;19921;-78
2022/04/05 06:26:23;;;;;;;;;;;8.60;91.80;;;;;;5031231;28;19938;-79
2022/04/05 06:28:49;;;;;;;;;;;8.60;91.90;;;;;;5029446;28;20283;-78
2022/04/05 06:31:14;;;;;;;;;;;8.60;91.80;;;;;;5028923;28;19932;-78
2022/04/05 06:33:40;;;;;;;;;;;8.70;91.80;;;;;;5028533;28;19939;-80
2022/04/05 06:36:05;;;;;;;;;;;8.70;91.70;;;;;;5028664;28;19920;-77
2022/04/05 06:38:30;;;;;;;;;;;8.70;91.50;;;;;;5028648;28;19920;-79
2022/04/05 06:40:57;;;;;;;;;;;8.70;91.50;;;;;;5029136;28;19914;-80
2022/04/05 06:43:26;;;;;;;;;;;8.80;91.20;;;;;;5031268;28;19959;-79
2022/04/05 06:45:51;;;;;;;;;;;8.90;90.80;;;;;;5034383;28;20003;-79
2022/04/05 06:48:17;;;;;;;;;;;8.80;90.90;;;;;;5031921;28;19955;-79
2022/04/05 06:50:43;;;;;;;;;;;8.80;91.20;;;;;;5029451;28;19942;-79
2022/04/05 06:53:09;;;;;;;;;;;8.80;91.30;;;;;;5032984;28;20004;-80
2022/04/05 06:55:34;;;;;;;;;;;8.70;91.30;;;;;;5033245;28;19920;-79
2022/04/05 06:58:00;;;;;;;;;;;8.80;91.70;;;;;;5034564;28;19925;-80
2022/04/05 07:00:26;;;;;;;;;;;8.80;91.60;;;;;;5030708;28;20351;-77
2022/04/05 07:02:52;;;;;;;;;;;8.80;91.20;;;;;;5027802;28;19944;-78
2022/04/05 07:05:17;;;;;;;;;;;8.80;91.70;;;;;;5028641;28;19969;-79
2022/04/05 07:07:43;;;;;;;;;;;8.80;91.30;;;;;;5029615;28;19952;-78
2022/04/05 07:10:10;;;;;;;;;;;8.80;91.60;;;;;;5026548;28;20763;-78
2022/04/05 07:12:35;;;;;;;;;;;8.90;91.50;;;;;;5026326;28;19967;-78
2022/04/05 07:15:01;;;;;;;;;;;8.90;91.30;;;;;;5027773;28;19913;-81
2022/04/05 07:17:26;;;;;;;;;;;9.00;91.50;;;;;;5027413;28;20016;-80
2022/04/05 07:19:52;;;;;;;;;;;9.00;91.40;;;;;;5038075;28;19917;-82
2022/04/05 07:22:17;;;;;;;;;;;8.90;91.40;;;;;;5039121;28;19920;-79
2022/04/05 07:24:43;;;;;;;;;;;9.00;91.20;;;;;;5045391;28;19913;-79
2022/04/05 07:27:08;;;;;;;;;;;9.00;91.30;;;;;;5040839;28;20008;-80
2022/04/05 07:29:34;;;;;;;;;;;9.00;91.70;;;;;;5031497;28;19968;-80
2022/04/05 07:32:00;;;;;;;;;;;9.10;91.70;;;;;;5030449;28;19919;-82
2022/04/05 07:34:26;;;;;;;;;;;9.10;91.70;;;;;;5028802;28;19996;-80
2022/04/05 07:36:51;;;;;;;;;;;9.10;91.80;;;;;;5027159;28;19945;-80
2022/04/05 07:39:19;;;;;;;;;;;9.20;91.70;;;;;;5031071;28;19952;-81
2022/04/05 07:41:44;;;;;;;;;;;9.10;91.80;;;;;;5027264;28;20102;-80
2022/04/05 07:44:09;;;;;;;;;;;9.20;91.70;;;;;;5029445;28;19913;-79
2022/04/05 07:46:35;;;;;;;;;;;9.30;91.90;;;;;;5044461;28;20022;-79
2022/04/05 07:49:01;;;;;;;;;;;9.50;92.10;;;;;;5028460;28;19917;-80
2022/04/05 07:51:27;;;;;;;;;;;9.60;91.70;;;;;;5022657;28;19944;-80
2022/04/05 07:53:53;;;;;;;;;;;9.60;91.90;;;;;;5049103;28;20550;-80
2022/04/05 07:56:18;;;;;;;;;;;9.70;92.10;;;;;;5033839;28;19931;-80
2022/04/05 07:58:43;;;;;;;;;;;9.80;92.20;;;;;;5036713;28;19959;-79
2022/04/05 08:01:09;;;;;;;;;;;9.80;92.20;;;;;;5035563;28;19982;-80
2022/04/05 08:03:35;;;;;;;;;;;9.80;92.40;;;;;;5029277;28;19948;-80
2022/04/05 08:06:01;;;;;;;;;;;9.90;92.10;;;;;;5031235;28;20696;-79
2022/04/05 08:08:28;;;;;;;;;;;10.00;92.40;;;;;;5031890;28;19995;-79
2022/04/05 08:10:54;;;;;;;;;;;10.00;92.20;;;;;;5030604;28;19953;-79
2022/04/05 08:13:20;;;;;;;;;;;10.00;92.20;;;;;;5028037;28;19920;-78
2022/04/05 08:15:45;;;;;;;;;;;10.00;92.10;;;;;;5034057;28;19921;-81
2022/04/05 08:18:11;;;;;;;;;;;10.00;92.10;;;;;;5053030;28;19924;-80
2022/04/05 08:20:39;;;;;;;;;;;10.10;91.70;;;;;;5030327;28;19976;-80
2022/04/05 08:23:05;;;;;;;;;;;10.20;91.80;;;;;;5030231;28;19970;-81
2022/04/05 08:25:30;;;;;;;;;;;10.20;91.40;;;;;;5030664;28;20367;-80
2022/04/05 08:27:57;;;;;;;;;;;10.20;91.50;;;;;;5039634;28;19961;-82
2022/04/05 08:30:22;;;;;;;;;;;10.20;91.40;;;;;;5031969;28;19917;-82
2022/04/05 08:32:48;;;;;;;;;;;10.20;91.70;;;;;;5030944;28;19919;-80
2022/04/05 08:35:15;;;;;;;;;;;10.30;91.40;;;;;;5031392;28;19995;-81
2022/04/05 08:37:41;;;;;;;;;;;10.20;91.30;;;;;;5034168;28;19913;-81
2022/04/05 08:40:07;;;;;;;;;;;10.20;91.60;;;;;;5029792;28;19920;-81
2022/04/05 08:42:36;;;;;;;;;;;10.20;91.60;;;;;;5031779;28;20360;-81
2022/04/05 08:45:07;;;;;;;;;;;10.20;91.70;;;;;;5031723;28;19913;-82
2022/04/05 08:47:59;;;;;;;;;;;10.20;91.90;;;;;;5031351;28;19971;-82
2022/04/05 08:50:27;;;;;;;;;;;10.30;91.80;;;;;;5025992;28;19925;-81
2022/04/05 08:52:54;;;;;;;;;;;10.30;91.70;;;;;;5032152;28;19913;-81
2022/04/05 08:55:19;;;;;;;;;;;10.50;91.50;;;;;;5030924;28;19921;-81
2022/04/05 08:57:45;;;;;;;;;;;10.50;91.50;;;;;;5052267;28;19913;-81
2022/04/05 09:00:12;;;;;;;;;;;10.60;91.30;;;;;;5031254;28;20031;-81
2022/04/05 09:02:37;;;;;;;;;;;10.70;90.90;;;;;;5028247;28;20384;-80
2022/04/05 09:05:03;;;;;;;;;;;10.60;90.80;;;;;;5030799;28;19916;-80
2022/04/05 09:07:30;;;;;;;;;;;10.60;90.70;;;;;;5036697;28;19923;-82
2022/04/05 09:10:07;;;;;;;;;;;10.70;90.50;;;;;;5034816;28;19964;-82
2022/04/05 09:12:43;;;;;;;;;;;10.80;90.60;;;;;;5031638;28;19917;-82
2022/04/05 09:15:10;;;;;;;;;;;11.00;90.40;;;;;;5034532;28;20004;-81
2022/04/05 09:17:40;;;;;;;;;;;11.10;90.30;;;;;;5033744;28;19979;-82
2022/04/05 09:20:05;;;;;;;;;;;11.10;90.00;;;;;;5027351;28;19920;-82
2022/04/05 09:22:35;;;;;;;;;;;11.20;89.50;;;;;;5030918;28;19942;-82
2022/04/05 09:25:05;;;;;;;;;;;11.20;89.20;;;;;;5033755;28;19921;-81
2022/04/05 09:27:47;;;;;;;;;;;11.20;89.10;;;;;;5039756;28;19921;-81
2022/04/05 09:30:13;;;;;;;;;;;11.30;89.00;;;;;;5032592;28;20378;-82
2022/04/05 09:32:42;;;;;;;;;;;11.20;88.80;;;;;;5031954;28;19913;-82
2022/04/05 09:35:07;;;;;;;;;;;11.20;88.70;;;;;;5031484;28;19921;-82
2022/04/05 09:37:38;;;;;;;;;;;11.20;89.00;;;;;;5032916;28;19921;-82
2022/04/05 09:40:17;;;;;;;;;;;11.10;88.70;;;;;;5031538;28;20447;-82
2022/04/05 09:43:00;;;;;;;;;;;11.10;88.80;;;;;;5032848;28;20565;-82
2022/04/05 09:45:44;;;;;;;;;;;11.10;89.00;;;;;;5048243;28;19995;-82
2022/04/05 09:48:10;;;;;;;;;;;11.10;89.10;;;;;;5036178;28;20031;-82
2022/04/05 09:50:54;;;;;;;;;;;11.10;89.20;;;;;;5031017;28;19983;-82
2022/04/05 09:53:19;;;;;;;;;;;11.30;89.10;;;;;;5030314;28;19920;-81
2022/04/05 09:55:45;;;;;;;;;;;11.60;88.60;;;;;;5032086;28;20055;-82
2022/04/05 09:58:11;;;;;;;;;;;11.60;87.80;;;;;;5030110;28;19928;-81
2022/04/05 10:00:37;;;;;;;;;;;11.60;87.70;;;;;;5031537;28;19913;-82
2022/04/05 10:03:03;;;;;;;;;;;11.50;88.00;;;;;;5027962;28;19944;-80
2022/04/05 10:05:29;;;;;;;;;;;11.40;88.00;;;;;;5028434;28;19913;-82
2022/04/05 10:07:55;;;;;;;;;;;11.50;88.40;;;;;;5029573;28;19913;-81
2022/04/05 10:10:21;;;;;;;;;;;11.40;88.10;;;;;;5030187;28;20012;-82
2022/04/05 10:12:47;;;;;;;;;;;11.40;87.90;;;;;;5028699;28;19952;-82
2022/04/05 10:15:12;;;;;;;;;;;11.40;88.60;;;;;;5028597;28;19979;-81
2022/04/05 10:17:43;;;;;;;;;;;11.50;88.70;;;;;;5027029;28;19909;-81
2022/04/05 10:20:09;;;;;;;;;;;11.60;88.70;;;;;;5033836;28;19928;-80
2022/04/05 10:22:35;;;;;;;;;;;11.60;88.50;;;;;;5034173;28;19913;-81
2022/04/05 10:25:01;;;;;;;;;;;11.50;88.40;;;;;;5031787;28;19956;-81
2022/04/05 10:27:26;;;;;;;;;;;11.40;88.60;;;;;;5025596;28;20314;-80
2022/04/05 10:30:04;;;;;;;;;;;11.30;89.50;;;;;;5030291;28;19914;-80
2022/04/05 10:32:41;;;;;;;;;;;11.30;89.50;;;;;;5027205;28;19928;-80
2022/04/05 10:35:08;;;;;;;;;;;11.30;89.60;;;;;;5028729;28;19941;-81
2022/04/05 10:37:40;;;;;;;;;;;11.30;89.60;;;;;;5023999;28;19917;-80
2022/04/05 10:40:06;;;;;;;;;;;11.40;89.40;;;;;;5025499;28;19917;-80
2022/04/05 10:42:36;;;;;;;;;;;11.50;89.20;;;;;;5025904;28;19969;-81
2022/04/05 10:45:11;;;;;;;;;;;11.50;89.30;;;;;;5025987;28;19964;-80
2022/04/05 10:47:55;;;;;;;;;;;11.50;89.00;;;;;;5025388;28;19924;-81
2022/04/05 10:50:20;;;;;;;;;;;11.50;88.90;;;;;;5025417;28;19956;-81
2022/04/05 10:52:47;;;;;;;;;;;11.60;88.90;;;;;;5025726;28;19965;-78
2022/04/05 10:55:16;;;;;;;;;;;11.70;88.50;;;;;;5028340;28;19913;-79
2022/04/05 10:57:41;;;;;;;;;;;11.90;88.10;;;;;;5030536;28;19917;-79
2022/04/05 11:00:11;;;;;;;;;;;12.10;87.40;;;;;;5038390;28;20494;-80
2022/04/05 11:02:41;;;;;;;;;;;12.00;87.50;;;;;;5048666;28;20280;-81
2022/04/05 11:05:18;;;;;;;;;;;11.80;87.60;;;;;;5029787;28;19925;-80
2022/04/05 11:07:53;;;;;;;;;;;11.80;88.30;;;;;;5044509;28;19913;-80
2022/04/05 11:10:19;;;;;;;;;;;11.80;87.90;;;;;;5031982;28;19995;-81
2022/04/05 11:12:45;;;;;;;;;;;12.00;87.80;;;;;;5045669;28;19976;-81
2022/04/05 11:15:13;;;;;;;;;;;12.10;87.20;;;;;;5031292;28;19944;-81
2022/04/05 11:17:39;;;;;;;;;;;12.10;86.70;;;;;;5046335;28;19978;-82
2022/04/05 11:20:05;;;;;;;;;;;12.10;86.60;;;;;;5030811;28;20048;-81
2022/04/05 11:22:33;;;;;;;;;;;12.10;86.60;;;;;;5031544;28;20384;-81
2022/04/05 11:25:08;;;;;;;;;;;12.00;86.60;;;;;;5053089;28;19952;-81
2022/04/05 11:27:38;;;;;;;;;;;11.90;86.70;;;;;;5033754;28;20380;-82
2022/04/05 11:30:22;;;;;;;;;;;11.90;87.10;;;;;;5032009;28;19913;-81
2022/04/05 11:33:06;;;;;;;;;;;11.70;87.40;;;;;;5032326;28;20104;-82
2022/04/05 11:35:51;;;;;;;;;;;11.60;88.20;;;;;;5031494;28;19913;-80
2022/04/05 11:38:16;;;;;;;;;;;11.50;88.30;;;;;;5028416;28;20008;-81
2022/04/05 11:40:42;;;;;;;;;;;11.40;88.70;;;;;;5029660;28;19996;-81
2022/04/05 11:43:16;;;;;;;;;;;11.40;89.20;;;;;;5030251;28;20639;-79
2022/04/05 11:45:43;;;;;;;;;;;11.60;89.60;;;;;;5033780;28;19914;-79
2022/04/05 11:48:13;;;;;;;;;;;11.70;89.00;;;;;;5031854;28;20367;-80
2022/04/05 11:50:38;;;;;;;;;;;11.80;88.70;;;;;;5031621;28;19936;-80
2022/04/05 11:53:22;;;;;;;;;;;11.70;88.50;;;;;;5033472;28;19989;-79
2022/04/05 11:56:05;;;;;;;;;;;11.70;88.40;;;;;;5027526;28;19994;-82
2022/04/05 11:58:34;;;;;;;;;;;11.80;88.80;;;;;;5031661;28;19932;-78
2022/04/05 12:01:00;;;;;;;;;;;12.10;88.30;;;;;;5015921;28;20009;-79
2022/04/05 12:03:25;;;;;;;;;;;12.20;87.80;;;;;;5028901;28;19999;-79
2022/04/05 12:05:52;;;;;;;;;;;12.40;87.10;;;;;;5030270;28;20518;-79
2022/04/05 12:08:17;;;;;;;;;;;12.50;86.60;;;;;;5030842;28;19924;-80
2022/04/05 12:10:44;;;;;;;;;;;12.60;86.60;;;;;;5028531;28;19917;-80
2022/04/05 12:13:10;;;;;;;;;;;12.70;86.20;;;;;;5030794;28;19922;-79
2022/04/05 12:15:36;;;;;;;;;;;12.60;85.70;;;;;;5028814;28;19913;-78
2022/04/05 12:18:17;;;;;;;;;;;12.50;86.10;;;;;;5029891;28;20342;-78
2022/04/05 12:21:06;;;;;;;;;;;12.60;86.00;;;;;;5028333;28;19917;-78
2022/04/05 12:23:33;;;;;;;;;;;12.60;85.50;;;;;;5024970;28;19913;-80
2022/04/05 12:26:01;;;;;;;;;;;12.60;85.40;;;;;;5028049;28;19921;-78
2022/04/05 12:28:26;;;;;;;;;;;12.50;84.90;;;;;;5029102;28;19995;-78
2022/04/05 12:30:52;;;;;;;;;;;12.50;84.90;;;;;;5029742;28;19970;-78
2022/04/05 12:33:24;;;;;;;;;;;12.50;85.10;;;;;;5031597;28;19928;-77
2022/04/05 12:35:49;;;;;;;;;;;12.40;85.60;;;;;;5026189;28;20320;-79
2022/04/05 12:38:15;;;;;;;;;;;12.40;85.80;;;;;;5031181;28;19917;-78
2022/04/05 12:40:41;;;;;;;;;;;12.50;85.60;;;;;;5031360;28;20600;-79
2022/04/05 12:43:13;;;;;;;;;;;12.70;85.10;;;;;;5045923;28;20011;-79
2022/04/05 12:45:39;;;;;;;;;;;12.90;84.90;;;;;;5028519;28;19960;-79
2022/04/05 12:48:11;;;;;;;;;;;12.90;84.20;;;;;;5046804;28;20503;-79
2022/04/05 12:50:41;;;;;;;;;;;13.00;84.50;;;;;;5028762;28;19933;-78
2022/04/05 12:53:07;;;;;;;;;;;13.00;84.00;;;;;;5027589;28;20278;-78
2022/04/05 12:55:34;;;;;;;;;;;12.80;84.40;;;;;;5018013;28;20020;-76
2022/04/05 12:58:00;;;;;;;;;;;12.60;84.60;;;;;;4973268;28;19923;-76
2022/04/05 13:00:32;;;;;;;;;;;12.50;85.20;;;;;;4981978;28;20220;-76
2022/04/05 13:03:09;;;;;;;;;;;12.30;86.10;;;;;;4964939;28;19917;-74
2022/04/05 13:08:29;;;;;;;;;;;12.10;87.00;;;;;;4976559;28;20202;-74
2022/04/05 13:10:55;;;;;;;;;;;12.10;86.90;;;;;;4976995;28;20606;-77
2022/04/05 13:13:34;;;;;;;;;;;12.10;87.00;;;;;;4968245;28;20079;-76
2022/04/05 13:16:05;;;;;;;;;;;12.20;87.30;;;;;;4976923;28;20275;-76
2022/04/05 13:18:35;;;;;;;;;;;12.30;87.50;;;;;;4966356;28;20214;-77
2022/04/05 13:21:03;;;;;;;;;;;12.40;87.30;;;;;;4987171;28;19909;-76
2022/04/05 13:23:31;;;;;;;;;;;12.50;87.00;;;;;;4976761;28;19920;-76
2022/04/05 13:25:57;;;;;;;;;;;12.60;86.60;;;;;;4980174;28;19975;-76
2022/04/05 13:28:30;;;;;;;;;;;12.40;86.70;;;;;;4990155;28;20340;-79
2022/04/05 13:30:55;;;;;;;;;;;12.40;86.60;;;;;;4991927;28;19949;-76
2022/04/05 13:33:21;;;;;;;;;;;12.50;86.50;;;;;;4994291;28;19939;-78
2022/04/05 13:35:46;;;;;;;;;;;12.70;86.20;;;;;;4993186;28;20762;-78
2022/04/05 13:38:12;;;;;;;;;;;13.00;85.50;;;;;;4985429;28;20095;-78
2022/04/05 13:40:37;;;;;;;;;;;13.00;84.90;;;;;;4981642;28;19913;-78
2022/04/05 13:43:03;;;;;;;;;;;13.10;83.80;;;;;;4978457;28;19920;-78
2022/04/05 13:45:28;;;;;;;;;;;13.20;83.40;;;;;;4969314;28;20234;-78
2022/04/05 13:47:54;;;;;;;;;;;13.40;83.10;;;;;;4983209;28;20730;-77
2022/04/05 13:50:20;;;;;;;;;;;13.30;82.60;;;;;;4982684;28;19913;-77
2022/04/05 13:52:46;;;;;;;;;;;13.20;81.40;;;;;;4984222;28;19920;-77
2022/04/05 13:55:20;;;;;;;;;;;13.30;82.70;;;;;;4984704;28;20731;-78
2022/04/05 13:57:46;;;;;;;;;;;13.40;81.80;;;;;;4985031;28;19910;-77
2022/04/05 14:00:11;;;;;;;;;;;13.30;82.50;;;;;;4963878;28;20007;-78
2022/04/05 14:02:38;;;;;;;;;;;13.50;82.60;;;;;;4981871;28;19913;-79
2022/04/05 14:05:04;;;;;;;;;;;13.60;82.30;;;;;;5045310;28;19916;-78
2022/04/05 14:07:31;;;;;;;;;;;13.50;81.90;;;;;;5033297;28;19913;-82
2022/04/05 14:09:57;;;;;;;;;;;13.50;82.00;;;;;;5032474;28;20376;-81
2022/04/05 14:12:22;;;;;;;;;;;13.50;82.40;;;;;;5035618;28;19917;-79
2022/04/05 14:14:47;;;;;;;;;;;13.20;82.30;;;;;;5038456;28;19917;-80
2022/04/05 14:17:13;;;;;;;;;;;13.10;83.30;;;;;;5036884;28;20004;-78
2022/04/05 14:19:38;;;;;;;;;;;12.80;84.00;;;;;;5029065;28;19952;-79
2022/04/05 14:22:04;;;;;;;;;;;12.70;84.60;;;;;;5031129;28;19915;-78
2022/04/05 14:24:29;;;;;;;;;;;12.70;84.30;;;;;;5031432;28;19920;-79
2022/04/05 14:26:56;;;;;;;;;;;12.70;83.90;;;;;;5027717;28;20283;-78